Miley Memorial Field Information

FAA: BPI - ICAO: KBPI

Miley Memorial Field (Airport) Location

State Wyoming
County Sublette
City Big Piney
Miley Memorial Field (Airport) is 3 miles north of Big Piney, WY.
Latitude 42-34-56.0000N
Longitude 110-06-31.9000W
Elevation 6,993ft

Miley Memorial Field METARs

METAR KBPI 281353Z AUTO 33004KT 10SM SCT050 01/M04 A3034 RMK AO2 SLP258 T00061039
Altimeter 30.34"
Temperature 0.6°C (33.1°F)
Wind 330° at 4KT
Clouds scattered at 5,000ft
Visibility 10.0mi
Time observed: 2021-10-28T13:53:00Z

Miley Memorial Field (Airport) Details

Status Operational
Activation July 1941
Ownership Public
Usage Public
Chart SALT LAKE CITY
ATC on-site No
Beacon schedule sunset-sunrise
Beacon color clear green

Miley Memorial Field (Airport) Contacts

Owner BIG PINEY-MARBLETON AIRPORT BOARD
Owner address P.O. BOX 307, BIG PINEY, WY 83113
Owner phone (307) 276-4022
Manager MIKE SHAW
Manager address 1115 SOUTH MAIN, WEST BEND, WI 53095
Manager phone 262-483-7432

Miley Memorial Field Radio Frequencies

Miley Memorial Field (Airport) Radio Frequencies

UNICOM 122.8
Common traffic advisory frequency (CTAF) 122.8